sensor_id;sensor_type;location;lat;lon;timestamp;P1;durP1;ratioP1;P2;durP2;ratioP2
22939;SDS011;11636;52.086;5.090;2023-02-04T00:01:02;16.20;;;2.88;;
22939;SDS011;11636;52.086;5.090;2023-02-04T00:03:35;21.58;;;4.05;;
22939;SDS011;11636;52.086;5.090;2023-02-04T00:06:02;27.95;;;4.82;;
22939;SDS011;11636;52.086;5.090;2023-02-04T00:08:35;24.38;;;4.30;;
22939;SDS011;11636;52.086;5.090;2023-02-04T00:11:03;21.63;;;3.97;;
22939;SDS011;11636;52.086;5.090;2023-02-04T00:13:36;19.85;;;3.83;;
22939;SDS011;11636;52.086;5.090;2023-02-04T00:16:03;23.48;;;4.13;;
22939;SDS011;11636;52.086;5.090;2023-02-04T00:18:37;28.48;;;4.40;;
22939;SDS011;11636;52.086;5.090;2023-02-04T00:21:04;18.98;;;4.07;;
22939;SDS011;11636;52.086;5.090;2023-02-04T00:23:37;21.10;;;4.10;;
22939;SDS011;11636;52.086;5.090;2023-02-04T00:26:04;29.02;;;3.85;;
22939;SDS011;11636;52.086;5.090;2023-02-04T00:28:38;22.52;;;3.88;;
22939;SDS011;11636;52.086;5.090;2023-02-04T00:31:05;31.73;;;4.68;;
22939;SDS011;11636;52.086;5.090;2023-02-04T00:33:39;27.55;;;4.95;;
22939;SDS011;11636;52.086;5.090;2023-02-04T00:36:14;25.95;;;5.10;;
22939;SDS011;11636;52.086;5.090;2023-02-04T00:38:47;19.20;;;3.45;;
22939;SDS011;11636;52.086;5.090;2023-02-04T00:41:14;25.30;;;4.97;;
22939;SDS011;11636;52.086;5.090;2023-02-04T00:43:47;18.33;;;3.72;;
22939;SDS011;11636;52.086;5.090;2023-02-04T00:46:14;26.40;;;4.10;;
22939;SDS011;11636;52.086;5.090;2023-02-04T00:48:47;24.67;;;4.13;;
22939;SDS011;11636;52.086;5.090;2023-02-04T00:51:20;17.65;;;3.50;;
22939;SDS011;11636;52.086;5.090;2023-02-04T00:53:47;25.83;;;4.60;;
22939;SDS011;11636;52.086;5.090;2023-02-04T00:56:20;23.30;;;4.22;;
22939;SDS011;11636;52.086;5.090;2023-02-04T00:58:47;25.42;;;4.15;;
22939;SDS011;11636;52.086;5.090;2023-02-04T01:01:20;21.02;;;4.53;;
22939;SDS011;11636;52.086;5.090;2023-02-04T01:03:53;17.42;;;3.88;;
22939;SDS011;11636;52.086;5.090;2023-02-04T01:06:27;21.85;;;4.03;;
22939;SDS011;11636;52.086;5.090;2023-02-04T01:09:01;21.35;;;3.35;;
22939;SDS011;11636;52.086;5.090;2023-02-04T01:11:34;19.40;;;3.58;;
22939;SDS011;11636;52.086;5.090;2023-02-04T01:14:08;20.90;;;3.40;;
22939;SDS011;11636;52.086;5.090;2023-02-04T01:16:35;11.95;;;2.50;;
22939;SDS011;11636;52.086;5.090;2023-02-04T01:19:09;21.58;;;3.58;;
22939;SDS011;11636;52.086;5.090;2023-02-04T01:21:36;22.92;;;4.35;;
22939;SDS011;11636;52.086;5.090;2023-02-04T01:24:06;24.42;;;4.53;;
22939;SDS011;11636;52.086;5.090;2023-02-04T01:26:40;21.08;;;4.32;;
22939;SDS011;11636;52.086;5.090;2023-02-04T01:29:12;16.90;;;3.55;;
22939;SDS011;11636;52.086;5.090;2023-02-04T01:31:45;26.52;;;3.97;;
22939;SDS011;11636;52.086;5.090;2023-02-04T01:34:12;20.10;;;3.72;;
22939;SDS011;11636;52.086;5.090;2023-02-04T01:36:39;28.65;;;4.25;;
22939;SDS011;11636;52.086;5.090;2023-02-04T01:39:12;30.33;;;4.43;;
22939;SDS011;11636;52.086;5.090;2023-02-04T01:41:40;18.98;;;3.63;;
22939;SDS011;11636;52.086;5.090;2023-02-04T01:44:13;26.02;;;4.22;;
22939;SDS011;11636;52.086;5.090;2023-02-04T01:46:46;17.40;;;3.88;;
22939;SDS011;11636;52.086;5.090;2023-02-04T01:49:13;26.38;;;4.53;;
22939;SDS011;11636;52.086;5.090;2023-02-04T01:51:52;28.75;;;5.30;;
22939;SDS011;11636;52.086;5.090;2023-02-04T01:54:19;19.33;;;3.28;;
22939;SDS011;11636;52.086;5.090;2023-02-04T01:57:00;20.52;;;4.22;;
22939;SDS011;11636;52.086;5.090;2023-02-04T01:59:27;19.73;;;4.78;;
22939;SDS011;11636;52.086;5.090;2023-02-04T02:02:01;18.60;;;4.15;;
22939;SDS011;11636;52.086;5.090;2023-02-04T02:04:28;17.00;;;3.35;;
22939;SDS011;11636;52.086;5.090;2023-02-04T02:06:59;28.40;;;4.00;;
22939;SDS011;11636;52.086;5.090;2023-02-04T02:09:35;19.25;;;4.28;;
22939;SDS011;11636;52.086;5.090;2023-02-04T02:12:09;19.67;;;3.75;;
22939;SDS011;11636;52.086;5.090;2023-02-04T02:14:37;24.90;;;4.32;;
22939;SDS011;11636;52.086;5.090;2023-02-04T02:17:10;16.27;;;3.45;;
22939;SDS011;11636;52.086;5.090;2023-02-04T02:19:43;19.27;;;4.22;;
22939;SDS011;11636;52.086;5.090;2023-02-04T02:24:47;22.50;;;5.13;;
22939;SDS011;11636;52.086;5.090;2023-02-04T02:27:19;17.67;;;3.97;;
22939;SDS011;11636;52.086;5.090;2023-02-04T02:29:59;15.85;;;3.13;;
22939;SDS011;11636;52.086;5.090;2023-02-04T02:32:32;15.75;;;3.20;;
22939;SDS011;11636;52.086;5.090;2023-02-04T02:34:59;12.02;;;2.85;;
22939;SDS011;11636;52.086;5.090;2023-02-04T02:37:32;11.90;;;2.60;;
22939;SDS011;11636;52.086;5.090;2023-02-04T02:39:59;16.70;;;3.40;;
22939;SDS011;11636;52.086;5.090;2023-02-04T02:42:41;10.10;;;2.37;;
22939;SDS011;11636;52.086;5.090;2023-02-04T02:45:12;14.18;;;2.78;;
22939;SDS011;11636;52.086;5.090;2023-02-04T02:47:52;11.85;;;2.58;;
22939;SDS011;11636;52.086;5.090;2023-02-04T02:50:20;9.18;;;2.10;;
22939;SDS011;11636;52.086;5.090;2023-02-04T02:52:56;10.32;;;2.13;;
22939;SDS011;11636;52.086;5.090;2023-02-04T02:55:24;8.70;;;2.33;;
22939;SDS011;11636;52.086;5.090;2023-02-04T02:57:59;12.55;;;2.30;;
22939;SDS011;11636;52.086;5.090;2023-02-04T03:00:27;10.20;;;1.88;;
22939;SDS011;11636;52.086;5.090;2023-02-04T03:03:13;6.63;;;2.00;;
22939;SDS011;11636;52.086;5.090;2023-02-04T03:08:33;7.18;;;1.50;;
22939;SDS011;11636;52.086;5.090;2023-02-04T03:11:08;6.82;;;2.08;;
22939;SDS011;11636;52.086;5.090;2023-02-04T03:13:41;12.18;;;2.80;;
22939;SDS011;11636;52.086;5.090;2023-02-04T03:16:08;14.88;;;3.50;;
22939;SDS011;11636;52.086;5.090;2023-02-04T03:18:43;10.93;;;2.97;;
22939;SDS011;11636;52.086;5.090;2023-02-04T03:21:15;15.82;;;2.85;;
22939;SDS011;11636;52.086;5.090;2023-02-04T03:23:42;13.73;;;3.33;;
22939;SDS011;11636;52.086;5.090;2023-02-04T03:26:16;12.65;;;3.10;;
22939;SDS011;11636;52.086;5.090;2023-02-04T03:28:42;21.98;;;3.75;;
22939;SDS011;11636;52.086;5.090;2023-02-04T03:31:16;13.02;;;2.97;;
22939;SDS011;11636;52.086;5.090;2023-02-04T03:33:49;12.50;;;2.83;;
22939;SDS011;11636;52.086;5.090;2023-02-04T03:36:16;7.88;;;2.05;;
22939;SDS011;11636;52.086;5.090;2023-02-04T03:38:49;8.07;;;2.53;;
22939;SDS011;11636;52.086;5.090;2023-02-04T03:41:17;12.43;;;2.47;;
22939;SDS011;11636;52.086;5.090;2023-02-04T03:43:44;7.45;;;2.08;;
22939;SDS011;11636;52.086;5.090;2023-02-04T03:46:18;4.82;;;1.80;;
22939;SDS011;11636;52.086;5.090;2023-02-04T03:48:45;5.95;;;1.73;;
22939;SDS011;11636;52.086;5.090;2023-02-04T03:51:11;6.10;;;2.05;;
22939;SDS011;11636;52.086;5.090;2023-02-04T03:53:45;5.88;;;1.73;;
22939;SDS011;11636;52.086;5.090;2023-02-04T03:56:11;11.07;;;2.22;;
22939;SDS011;11636;52.086;5.090;2023-02-04T03:58:38;5.65;;;1.63;;
22939;SDS011;11636;52.086;5.090;2023-02-04T04:01:12;6.57;;;1.70;;
22939;SDS011;11636;52.086;5.090;2023-02-04T04:03:45;9.02;;;2.42;;
22939;SDS011;11636;52.086;5.090;2023-02-04T04:06:12;7.75;;;2.28;;
22939;SDS011;11636;52.086;5.090;2023-02-04T04:08:46;8.27;;;1.90;;
22939;SDS011;11636;52.086;5.090;2023-02-04T04:11:19;6.97;;;1.70;;
22939;SDS011;11636;52.086;5.090;2023-02-04T04:13:47;7.47;;;2.20;;
22939;SDS011;11636;52.086;5.090;2023-02-04T04:16:20;8.43;;;2.25;;
22939;SDS011;11636;52.086;5.090;2023-02-04T04:18:53;9.40;;;2.20;;
22939;SDS011;11636;52.086;5.090;2023-02-04T04:21:28;5.10;;;1.40;;
22939;SDS011;11636;52.086;5.090;2023-02-04T04:23:54;5.28;;;1.60;;
22939;SDS011;11636;52.086;5.090;2023-02-04T04:26:28;9.40;;;2.20;;
22939;SDS011;11636;52.086;5.090;2023-02-04T04:28:55;6.07;;;1.85;;
22939;SDS011;11636;52.086;5.090;2023-02-04T04:31:21;8.50;;;2.13;;
22939;SDS011;11636;52.086;5.090;2023-02-04T04:33:55;9.35;;;2.42;;
22939;SDS011;11636;52.086;5.090;2023-02-04T04:36:22;9.15;;;2.08;;
22939;SDS011;11636;52.086;5.090;2023-02-04T04:38:49;7.35;;;1.80;;
22939;SDS011;11636;52.086;5.090;2023-02-04T04:41:22;6.22;;;1.95;;
22939;SDS011;11636;52.086;5.090;2023-02-04T04:43:48;5.55;;;1.80;;
22939;SDS011;11636;52.086;5.090;2023-02-04T04:46:22;4.78;;;1.73;;
22939;SDS011;11636;52.086;5.090;2023-02-04T04:48:49;7.97;;;2.38;;
22939;SDS011;11636;52.086;5.090;2023-02-04T04:51:22;4.82;;;1.45;;
22939;SDS011;11636;52.086;5.090;2023-02-04T04:53:48;5.57;;;1.40;;
22939;SDS011;11636;52.086;5.090;2023-02-04T04:56:22;6.60;;;1.63;;
22939;SDS011;11636;52.086;5.090;2023-02-04T04:58:48;5.18;;;1.60;;
22939;SDS011;11636;52.086;5.090;2023-02-04T05:01:15;7.20;;;1.65;;
22939;SDS011;11636;52.086;5.090;2023-02-04T05:03:49;5.03;;;1.65;;
22939;SDS011;11636;52.086;5.090;2023-02-04T05:06:16;4.13;;;1.23;;
22939;SDS011;11636;52.086;5.090;2023-02-04T05:09:04;4.63;;;1.35;;
22939;SDS011;11636;52.086;5.090;2023-02-04T05:11:32;5.50;;;1.67;;
22939;SDS011;11636;52.086;5.090;2023-02-04T05:14:07;4.43;;;1.33;;
22939;SDS011;11636;52.086;5.090;2023-02-04T05:16:34;5.13;;;1.65;;
22939;SDS011;11636;52.086;5.090;2023-02-04T05:19:08;5.47;;;1.90;;
22939;SDS011;11636;52.086;5.090;2023-02-04T05:21:35;4.28;;;1.23;;
22939;SDS011;11636;52.086;5.090;2023-02-04T05:24:09;6.60;;;1.92;;
22939;SDS011;11636;52.086;5.090;2023-02-04T05:26:42;5.72;;;1.70;;
22939;SDS011;11636;52.086;5.090;2023-02-04T05:29:15;6.85;;;2.20;;
22939;SDS011;11636;52.086;5.090;2023-02-04T05:31:42;4.70;;;1.83;;
22939;SDS011;11636;52.086;5.090;2023-02-04T05:34:15;7.30;;;2.15;;
22939;SDS011;11636;52.086;5.090;2023-02-04T05:36:48;6.60;;;2.65;;
22939;SDS011;11636;52.086;5.090;2023-02-04T05:39:16;13.90;;;3.70;;
22939;SDS011;11636;52.086;5.090;2023-02-04T05:41:45;14.13;;;3.67;;
22939;SDS011;11636;52.086;5.090;2023-02-04T05:44:18;11.25;;;3.47;;
22939;SDS011;11636;52.086;5.090;2023-02-04T05:46:45;11.07;;;3.67;;
22939;SDS011;11636;52.086;5.090;2023-02-04T05:49:25;7.47;;;2.83;;
22939;SDS011;11636;52.086;5.090;2023-02-04T05:51:51;14.68;;;4.03;;
22939;SDS011;11636;52.086;5.090;2023-02-04T05:54:25;9.63;;;3.92;;
22939;SDS011;11636;52.086;5.090;2023-02-04T05:56:52;9.98;;;3.70;;
22939;SDS011;11636;52.086;5.090;2023-02-04T05:59:26;9.02;;;3.38;;
22939;SDS011;11636;52.086;5.090;2023-02-04T06:01:53;8.10;;;3.55;;
22939;SDS011;11636;52.086;5.090;2023-02-04T06:04:26;5.82;;;2.95;;
22939;SDS011;11636;52.086;5.090;2023-02-04T06:06:53;6.15;;;2.90;;
22939;SDS011;11636;52.086;5.090;2023-02-04T06:09:26;8.20;;;2.95;;
22939;SDS011;11636;52.086;5.090;2023-02-04T06:11:53;9.63;;;3.45;;
22939;SDS011;11636;52.086;5.090;2023-02-04T06:14:26;6.93;;;2.90;;
22939;SDS011;11636;52.086;5.090;2023-02-04T06:16:53;7.97;;;2.65;;
22939;SDS011;11636;52.086;5.090;2023-02-04T06:19:27;8.23;;;2.85;;
22939;SDS011;11636;52.086;5.090;2023-02-04T06:21:55;4.95;;;2.55;;
22939;SDS011;11636;52.086;5.090;2023-02-04T06:24:29;5.20;;;2.88;;
22939;SDS011;11636;52.086;5.090;2023-02-04T06:26:56;9.85;;;3.28;;
22939;SDS011;11636;52.086;5.090;2023-02-04T06:29:22;7.43;;;3.13;;
22939;SDS011;11636;52.086;5.090;2023-02-04T06:31:57;6.53;;;2.70;;
22939;SDS011;11636;52.086;5.090;2023-02-04T06:34:24;7.03;;;2.92;;
22939;SDS011;11636;52.086;5.090;2023-02-04T06:36:58;5.53;;;2.72;;
22939;SDS011;11636;52.086;5.090;2023-02-04T06:39:32;6.15;;;2.70;;
22939;SDS011;11636;52.086;5.090;2023-02-04T06:42:05;6.40;;;2.67;;
22939;SDS011;11636;52.086;5.090;2023-02-04T06:44:39;4.93;;;2.20;;
22939;SDS011;11636;52.086;5.090;2023-02-04T06:47:12;5.03;;;2.33;;
22939;SDS011;11636;52.086;5.090;2023-02-04T06:49:39;4.68;;;2.10;;
22939;SDS011;11636;52.086;5.090;2023-02-04T06:52:07;4.65;;;2.13;;
22939;SDS011;11636;52.086;5.090;2023-02-04T06:54:41;4.45;;;2.03;;
22939;SDS011;11636;52.086;5.090;2023-02-04T06:57:08;4.70;;;2.20;;
22939;SDS011;11636;52.086;5.090;2023-02-04T06:59:41;5.63;;;2.28;;
22939;SDS011;11636;52.086;5.090;2023-02-04T07:02:09;5.63;;;2.50;;
22939;SDS011;11636;52.086;5.090;2023-02-04T07:04:44;4.80;;;2.05;;
22939;SDS011;11636;52.086;5.090;2023-02-04T07:07:12;4.82;;;2.17;;
22939;SDS011;11636;52.086;5.090;2023-02-04T07:09:46;4.57;;;2.30;;
22939;SDS011;11636;52.086;5.090;2023-02-04T07:12:19;4.80;;;2.00;;
22939;SDS011;11636;52.086;5.090;2023-02-04T07:14:46;6.97;;;2.55;;
22939;SDS011;11636;52.086;5.090;2023-02-04T07:17:13;4.13;;;2.00;;
22939;SDS011;11636;52.086;5.090;2023-02-04T07:19:46;4.15;;;2.10;;
22939;SDS011;11636;52.086;5.090;2023-02-04T07:22:13;6.63;;;2.22;;
22939;SDS011;11636;52.086;5.090;2023-02-04T07:24:46;6.03;;;2.53;;
22939;SDS011;11636;52.086;5.090;2023-02-04T07:27:20;4.50;;;2.10;;
22939;SDS011;11636;52.086;5.090;2023-02-04T07:29:47;5.22;;;2.50;;
22939;SDS011;11636;52.086;5.090;2023-02-04T07:32:20;4.22;;;1.92;;
22939;SDS011;11636;52.086;5.090;2023-02-04T07:34:47;4.95;;;2.20;;
22939;SDS011;11636;52.086;5.090;2023-02-04T07:37:20;3.58;;;1.80;;
22939;SDS011;11636;52.086;5.090;2023-02-04T07:39:55;5.18;;;2.15;;
22939;SDS011;11636;52.086;5.090;2023-02-04T07:42:22;4.18;;;1.92;;
22939;SDS011;11636;52.086;5.090;2023-02-04T07:44:48;4.78;;;2.20;;
22939;SDS011;11636;52.086;5.090;2023-02-04T07:47:29;4.30;;;2.05;;
22939;SDS011;11636;52.086;5.090;2023-02-04T07:49:56;4.75;;;2.42;;
22939;SDS011;11636;52.086;5.090;2023-02-04T07:52:32;3.80;;;2.05;;
22939;SDS011;11636;52.086;5.090;2023-02-04T07:55:05;5.68;;;2.50;;
22939;SDS011;11636;52.086;5.090;2023-02-04T07:57:39;4.93;;;2.15;;
22939;SDS011;11636;52.086;5.090;2023-02-04T08:00:12;6.53;;;3.00;;
22939;SDS011;11636;52.086;5.090;2023-02-04T08:02:53;6.10;;;2.80;;
22939;SDS011;11636;52.086;5.090;2023-02-04T08:05:27;4.47;;;2.15;;
22939;SDS011;11636;52.086;5.090;2023-02-04T08:08:02;6.47;;;2.65;;
22939;SDS011;11636;52.086;5.090;2023-02-04T08:10:29;3.97;;;1.83;;
22939;SDS011;11636;52.086;5.090;2023-02-04T08:12:56;4.22;;;1.70;;
22939;SDS011;11636;52.086;5.090;2023-02-04T08:15:29;4.45;;;1.67;;
22939;SDS011;11636;52.086;5.090;2023-02-04T08:18:03;4.18;;;2.15;;
22939;SDS011;11636;52.086;5.090;2023-02-04T08:20:30;4.30;;;2.13;;
22939;SDS011;11636;52.086;5.090;2023-02-04T08:23:04;11.70;;;4.20;;
22939;SDS011;11636;52.086;5.090;2023-02-04T08:25:36;5.30;;;2.10;;
22939;SDS011;11636;52.086;5.090;2023-02-04T08:28:11;5.63;;;2.50;;
22939;SDS011;11636;52.086;5.090;2023-02-04T08:30:44;3.85;;;1.92;;
22939;SDS011;11636;52.086;5.090;2023-02-04T08:33:12;4.82;;;1.88;;
22939;SDS011;11636;52.086;5.090;2023-02-04T08:35:45;3.30;;;1.63;;
22939;SDS011;11636;52.086;5.090;2023-02-04T08:38:12;4.57;;;1.90;;
22939;SDS011;11636;52.086;5.090;2023-02-04T08:40:45;2.78;;;1.40;;
22939;SDS011;11636;52.086;5.090;2023-02-04T08:43:12;3.55;;;1.77;;
22939;SDS011;11636;52.086;5.090;2023-02-04T08:45:39;10.43;;;3.53;;
22939;SDS011;11636;52.086;5.090;2023-02-04T08:48:12;6.43;;;2.10;;
22939;SDS011;11636;52.086;5.090;2023-02-04T08:50:39;5.60;;;2.30;;
22939;SDS011;11636;52.086;5.090;2023-02-04T08:53:06;7.80;;;2.70;;
22939;SDS011;11636;52.086;5.090;2023-02-04T08:55:39;13.05;;;3.25;;
22939;SDS011;11636;52.086;5.090;2023-02-04T08:58:12;4.70;;;2.13;;
22939;SDS011;11636;52.086;5.090;2023-02-04T09:00:39;5.00;;;2.20;;
22939;SDS011;11636;52.086;5.090;2023-02-04T09:03:16;4.43;;;2.30;;
22939;SDS011;11636;52.086;5.090;2023-02-04T09:05:50;3.83;;;1.60;;
22939;SDS011;11636;52.086;5.090;2023-02-04T09:08:23;3.70;;;1.85;;
22939;SDS011;11636;52.086;5.090;2023-02-04T09:10:50;6.07;;;2.28;;
22939;SDS011;11636;52.086;5.090;2023-02-04T09:13:17;5.18;;;2.13;;
22939;SDS011;11636;52.086;5.090;2023-02-04T09:15:50;6.20;;;2.30;;
22939;SDS011;11636;52.086;5.090;2023-02-04T09:18:19;4.72;;;2.08;;
22939;SDS011;11636;52.086;5.090;2023-02-04T09:20:47;5.50;;;2.10;;
22939;SDS011;11636;52.086;5.090;2023-02-04T09:23:21;4.20;;;1.92;;
22939;SDS011;11636;52.086;5.090;2023-02-04T09:26:01;13.25;;;4.00;;
22939;SDS011;11636;52.086;5.090;2023-02-04T09:28:29;9.98;;;3.28;;
22939;SDS011;11636;52.086;5.090;2023-02-04T09:31:02;9.45;;;3.45;;
22939;SDS011;11636;52.086;5.090;2023-02-04T09:33:38;16.67;;;4.53;;
22939;SDS011;11636;52.086;5.090;2023-02-04T09:36:05;13.60;;;3.80;;
22939;SDS011;11636;52.086;5.090;2023-02-04T09:38:35;13.07;;;4.38;;
22939;SDS011;11636;52.086;5.090;2023-02-04T09:41:09;11.35;;;3.70;;
22939;SDS011;11636;52.086;5.090;2023-02-04T09:43:44;12.23;;;4.25;;
22939;SDS011;11636;52.086;5.090;2023-02-04T09:46:22;15.38;;;4.30;;
22939;SDS011;11636;52.086;5.090;2023-02-04T09:48:53;13.77;;;3.72;;
22939;SDS011;11636;52.086;5.090;2023-02-04T09:51:28;12.45;;;4.13;;
22939;SDS011;11636;52.086;5.090;2023-02-04T09:54:06;9.77;;;3.40;;
22939;SDS011;11636;52.086;5.090;2023-02-04T09:56:44;8.05;;;3.20;;
22939;SDS011;11636;52.086;5.090;2023-02-04T09:59:17;6.80;;;2.90;;
22939;SDS011;11636;52.086;5.090;2023-02-04T10:02:01;7.38;;;2.78;;
22939;SDS011;11636;52.086;5.090;2023-02-04T10:04:46;10.63;;;3.42;;
22939;SDS011;11636;52.086;5.090;2023-02-04T10:07:14;13.07;;;4.10;;
22939;SDS011;11636;52.086;5.090;2023-02-04T10:09:53;11.45;;;4.10;;
22939;SDS011;11636;52.086;5.090;2023-02-04T10:12:27;10.63;;;3.90;;
22939;SDS011;11636;52.086;5.090;2023-02-04T10:14:54;25.75;;;4.70;;
22939;SDS011;11636;52.086;5.090;2023-02-04T10:17:21;9.85;;;2.90;;
22939;SDS011;11636;52.086;5.090;2023-02-04T10:19:55;10.80;;;3.05;;
22939;SDS011;11636;52.086;5.090;2023-02-04T10:22:28;8.93;;;2.72;;
22939;SDS011;11636;52.086;5.090;2023-02-04T10:24:56;7.88;;;2.88;;
22939;SDS011;11636;52.086;5.090;2023-02-04T10:27:26;6.10;;;1.85;;
22939;SDS011;11636;52.086;5.090;2023-02-04T10:29:59;7.03;;;2.28;;
22939;SDS011;11636;52.086;5.090;2023-02-04T10:32:36;5.35;;;1.58;;
22939;SDS011;11636;52.086;5.090;2023-02-04T10:35:11;9.55;;;2.40;;
22939;SDS011;11636;52.086;5.090;2023-02-04T10:37:47;6.38;;;1.80;;
22939;SDS011;11636;52.086;5.090;2023-02-04T10:40:33;4.90;;;1.73;;
22939;SDS011;11636;52.086;5.090;2023-02-04T10:43:16;7.85;;;1.75;;
22939;SDS011;11636;52.086;5.090;2023-02-04T10:45:56;22.65;;;5.60;;
22939;SDS011;11636;52.086;5.090;2023-02-04T10:48:26;17.65;;;4.82;;
22939;SDS011;11636;52.086;5.090;2023-02-04T10:51:01;14.32;;;3.97;;
22939;SDS011;11636;52.086;5.090;2023-02-04T10:53:35;16.77;;;4.28;;
22939;SDS011;11636;52.086;5.090;2023-02-04T10:56:28;9.88;;;2.65;;
22939;SDS011;11636;52.086;5.090;2023-02-04T10:58:56;13.02;;;3.08;;
22939;SDS011;11636;52.086;5.090;2023-02-04T11:01:29;15.38;;;3.10;;
22939;SDS011;11636;52.086;5.090;2023-02-04T11:03:57;11.18;;;3.03;;
22939;SDS011;11636;52.086;5.090;2023-02-04T11:06:45;9.93;;;2.47;;
22939;SDS011;11636;52.086;5.090;2023-02-04T11:09:25;18.73;;;4.30;;
22939;SDS011;11636;52.086;5.090;2023-02-04T11:11:52;16.30;;;3.80;;
22939;SDS011;11636;52.086;5.090;2023-02-04T11:14:29;29.40;;;6.30;;
22939;SDS011;11636;52.086;5.090;2023-02-04T11:16:56;14.88;;;4.30;;
22939;SDS011;11636;52.086;5.090;2023-02-04T11:19:33;19.65;;;5.05;;
22939;SDS011;11636;52.086;5.090;2023-02-04T11:22:35;13.13;;;3.15;;
22939;SDS011;11636;52.086;5.090;2023-02-04T11:30:59;11.68;;;2.83;;
22939;SDS011;11636;52.086;5.090;2023-02-04T11:33:37;9.63;;;2.30;;
22939;SDS011;11636;52.086;5.090;2023-02-04T11:36:10;11.55;;;3.05;;
22939;SDS011;11636;52.086;5.090;2023-02-04T11:38:47;16.58;;;4.32;;
22939;SDS011;11636;52.086;5.090;2023-02-04T11:41:28;20.95;;;4.82;;
22939;SDS011;11636;52.086;5.090;2023-02-04T11:44:03;30.98;;;5.78;;
22939;SDS011;11636;52.086;5.090;2023-02-04T11:46:30;18.58;;;4.05;;
22939;SDS011;11636;52.086;5.090;2023-02-04T11:49:19;15.52;;;4.05;;
22939;SDS011;11636;52.086;5.090;2023-02-04T11:51:48;16.63;;;3.80;;
22939;SDS011;11636;52.086;5.090;2023-02-04T11:54:21;12.75;;;3.33;;
22939;SDS011;11636;52.086;5.090;2023-02-04T11:56:51;15.45;;;3.83;;
22939;SDS011;11636;52.086;5.090;2023-02-04T11:59:24;16.42;;;3.90;;
22939;SDS011;11636;52.086;5.090;2023-02-04T12:02:04;20.38;;;3.40;;
22939;SDS011;11636;52.086;5.090;2023-02-04T12:04:40;19.13;;;4.40;;
22939;SDS011;11636;52.086;5.090;2023-02-04T12:07:31;19.48;;;4.72;;
22939;SDS011;11636;52.086;5.090;2023-02-04T12:10:13;16.45;;;3.92;;
22939;SDS011;11636;52.086;5.090;2023-02-04T12:12:51;20.95;;;4.45;;
22939;SDS011;11636;52.086;5.090;2023-02-04T12:15:32;11.02;;;3.00;;
22939;SDS011;11636;52.086;5.090;2023-02-04T12:18:04;16.85;;;3.00;;
22939;SDS011;11636;52.086;5.090;2023-02-04T12:20:40;12.20;;;2.70;;
22939;SDS011;11636;52.086;5.090;2023-02-04T12:23:13;12.05;;;2.90;;
22939;SDS011;11636;52.086;5.090;2023-02-04T12:25:47;17.00;;;3.55;;
22939;SDS011;11636;52.086;5.090;2023-02-04T12:28:15;15.40;;;3.58;;
22939;SDS011;11636;52.086;5.090;2023-02-04T12:30:48;12.75;;;2.90;;
22939;SDS011;11636;52.086;5.090;2023-02-04T12:33:15;10.15;;;2.55;;
22939;SDS011;11636;52.086;5.090;2023-02-04T12:35:48;11.90;;;2.88;;
22939;SDS011;11636;52.086;5.090;2023-02-04T12:38:17;16.77;;;4.03;;
22939;SDS011;11636;52.086;5.090;2023-02-04T12:40:50;13.75;;;3.90;;
22939;SDS011;11636;52.086;5.090;2023-02-04T12:43:29;11.90;;;2.72;;
22939;SDS011;11636;52.086;5.090;2023-02-04T12:46:02;17.75;;;4.07;;
22939;SDS011;11636;52.086;5.090;2023-02-04T12:48:39;15.18;;;3.03;;
22939;SDS011;11636;52.086;5.090;2023-02-04T12:51:13;9.25;;;2.38;;
22939;SDS011;11636;52.086;5.090;2023-02-04T12:53:47;13.57;;;3.33;;
22939;SDS011;11636;52.086;5.090;2023-02-04T12:56:14;19.90;;;5.32;;
22939;SDS011;11636;52.086;5.090;2023-02-04T12:58:47;17.98;;;4.97;;
22939;SDS011;11636;52.086;5.090;2023-02-04T13:01:20;17.83;;;4.00;;
22939;SDS011;11636;52.086;5.090;2023-02-04T13:03:47;16.77;;;4.28;;
22939;SDS011;11636;52.086;5.090;2023-02-04T13:06:20;15.32;;;4.60;;
22939;SDS011;11636;52.086;5.090;2023-02-04T13:08:47;12.40;;;3.95;;
22939;SDS011;11636;52.086;5.090;2023-02-04T13:11:20;16.52;;;4.10;;
22939;SDS011;11636;52.086;5.090;2023-02-04T13:13:54;19.95;;;4.18;;
22939;SDS011;11636;52.086;5.090;2023-02-04T13:16:20;13.38;;;2.80;;
22939;SDS011;11636;52.086;5.090;2023-02-04T13:19:07;17.58;;;3.38;;
22939;SDS011;11636;52.086;5.090;2023-02-04T13:21:39;10.98;;;2.53;;
22939;SDS011;11636;52.086;5.090;2023-02-04T13:24:07;13.93;;;2.97;;
22939;SDS011;11636;52.086;5.090;2023-02-04T13:26:40;13.15;;;3.25;;
22939;SDS011;11636;52.086;5.090;2023-02-04T13:29:14;12.38;;;2.65;;
22939;SDS011;11636;52.086;5.090;2023-02-04T13:31:40;9.40;;;2.78;;
22939;SDS011;11636;52.086;5.090;2023-02-04T13:34:14;14.10;;;2.78;;
22939;SDS011;11636;52.086;5.090;2023-02-04T13:36:41;12.73;;;2.67;;
22939;SDS011;11636;52.086;5.090;2023-02-04T13:39:09;6.50;;;1.98;;
22939;SDS011;11636;52.086;5.090;2023-02-04T13:41:43;10.38;;;2.13;;
22939;SDS011;11636;52.086;5.090;2023-02-04T13:44:16;8.93;;;2.20;;
22939;SDS011;11636;52.086;5.090;2023-02-04T13:46:42;7.13;;;2.10;;
22939;SDS011;11636;52.086;5.090;2023-02-04T13:49:17;4.63;;;1.38;;
22939;SDS011;11636;52.086;5.090;2023-02-04T13:51:51;7.18;;;1.75;;
22939;SDS011;11636;52.086;5.090;2023-02-04T13:54:17;6.97;;;2.10;;
22939;SDS011;11636;52.086;5.090;2023-02-04T13:56:44;5.15;;;1.20;;
22939;SDS011;11636;52.086;5.090;2023-02-04T13:59:18;5.65;;;1.48;;
22939;SDS011;11636;52.086;5.090;2023-02-04T14:01:46;3.42;;;1.10;;
22939;SDS011;11636;52.086;5.090;2023-02-04T14:04:20;5.07;;;1.30;;
22939;SDS011;11636;52.086;5.090;2023-02-04T14:06:47;5.07;;;1.17;;
22939;SDS011;11636;52.086;5.090;2023-02-04T14:09:20;3.80;;;1.20;;
22939;SDS011;11636;52.086;5.090;2023-02-04T14:11:54;3.38;;;0.93;;
22939;SDS011;11636;52.086;5.090;2023-02-04T14:14:27;7.85;;;2.63;;
22939;SDS011;11636;52.086;5.090;2023-02-04T14:16:58;7.00;;;1.98;;
22939;SDS011;11636;52.086;5.090;2023-02-04T14:19:32;5.03;;;1.60;;
22939;SDS011;11636;52.086;5.090;2023-02-04T14:22:01;6.20;;;1.88;;
22939;SDS011;11636;52.086;5.090;2023-02-04T14:24:37;4.40;;;1.48;;
22939;SDS011;11636;52.086;5.090;2023-02-04T14:27:13;2.90;;;1.05;;
22939;SDS011;11636;52.086;5.090;2023-02-04T14:29:46;6.97;;;1.90;;
22939;SDS011;11636;52.086;5.090;2023-02-04T14:32:19;6.55;;;1.60;;
22939;SDS011;11636;52.086;5.090;2023-02-04T14:34:53;5.45;;;1.58;;
22939;SDS011;11636;52.086;5.090;2023-02-04T14:37:26;9.73;;;2.72;;
22939;SDS011;11636;52.086;5.090;2023-02-04T14:39:53;7.13;;;2.35;;
22939;SDS011;11636;52.086;5.090;2023-02-04T14:42:28;6.85;;;2.00;;
22939;SDS011;11636;52.086;5.090;2023-02-04T14:44:55;5.20;;;1.75;;
22939;SDS011;11636;52.086;5.090;2023-02-04T14:47:29;5.65;;;1.73;;
22939;SDS011;11636;52.086;5.090;2023-02-04T14:49:59;5.35;;;1.73;;
22939;SDS011;11636;52.086;5.090;2023-02-04T14:52:34;15.30;;;3.17;;
22939;SDS011;11636;52.086;5.090;2023-02-04T14:55:08;13.93;;;2.88;;
22939;SDS011;11636;52.086;5.090;2023-02-04T14:57:43;20.55;;;3.60;;
22939;SDS011;11636;52.086;5.090;2023-02-04T15:00:10;13.40;;;3.22;;
22939;SDS011;11636;52.086;5.090;2023-02-04T15:02:46;13.93;;;3.20;;
22939;SDS011;11636;52.086;5.090;2023-02-04T15:05:20;8.60;;;2.60;;
22939;SDS011;11636;52.086;5.090;2023-02-04T15:07:47;4.97;;;1.75;;
22939;SDS011;11636;52.086;5.090;2023-02-04T15:10:14;6.28;;;2.08;;
22939;SDS011;11636;52.086;5.090;2023-02-04T15:12:47;9.68;;;2.20;;
22939;SDS011;11636;52.086;5.090;2023-02-04T15:15:14;6.72;;;1.90;;
22939;SDS011;11636;52.086;5.090;2023-02-04T15:17:48;4.63;;;1.40;;
22939;SDS011;11636;52.086;5.090;2023-02-04T15:20:15;5.82;;;2.20;;